Weather at Banco de España Helipad

Public forecast

Using degrees Celsius for public forecast. Weather courtesy of forecast.io.

Closest aviation weather report (METAR) to Banco de España Helipad

Closest report is Adolfo Suárez Madrid–Barajas Airport, 6.9 nm (12.7 km) ENE. Retrieved 2020/11/27 16:30 UTC (0 seconds ago):

LEMD 271630Z 36005KT 340V060 9999 RA SCT040 BKN060 08/08 Q1008 R88/29//95 NOSIG

Closest aviation forecast (TAF) to Banco de España Helipad

Closest forecast is Adolfo Suárez Madrid–Barajas Airport, 6.9 nm (12.7 km) ENE. Retrieved 2020/11/27 12:27 UTC (4 hours ago):

TAF LEMD 271100Z 2712/2818 VRB05KT 9999 SCT030 BKN045 TX14/2715Z TN04/2806Z TEMPO 2712/2721 06010KT PROB40 TEMPO 2712/2717 4000 RADZ BKN025 PROB30 TEMPO 2723/2806 4000 BR BKN012